Terminal Aerodrome Forecast
Issued by NWS Goodland, KS

Home | Current Version | Previous Version | Text Only | Print | Product List | Glossary On
Versions: 1 2 3 4 5 6 7 8 9 10 11 12 13 14
000
FTUS43 KGLD 181732
TAFGLD
TAF
KGLD 181732Z 1818/1918 17008KT P6SM FEW015
     FM190000 16008KT P6SM SKC
     FM190800 20012KT P6SM SKC
     FM191600 19018G24KT P6SM FEW250=

USA.gov is the U.S. government's official web portal to all federal, state and local government web resources and services.